Search for airport 
image banner adimage banner adimage banner ad
image banner ad

KTPH - Tonopah

Located in Tonopah, United States

ICAO - TPH, IATA -

Data provided by Airmate  

General information

Coordinates: N38°3'37" W117°5'13"
Elevation is 5430 feet MSL.
Magnetic variation is 15° East
View others Airports in Nevada

Operational data

Special qualification required
Current time UTC:
Current local time:
Weather
METAR: KTPH 092156Z AUTO VRB03KT 10SM CLR 19/M13 A2997 RMK AO2 SLP106 T01941128
TAF: KTPH 091721Z 0918/1018 VRB03KT P6SM SKC FM100000 31012G21KT P6SM FEW200 FM100300 33016G29KT P6SM FEW200 FM100900 35008KT P6SM FEW250
View NOTAMs / SUP AIP / TFR affecting this airport [VIEW]
Communications frequencies: [VIEW]

Runways:

RWY identifierQFULength (ft)Width (ft)SurfaceLDA (ft)
11125°619550ASPH
29305°619550ASPH
15165°715880ASPH
33345°715880ASPH

Airport contact information

Address: Tonopah United States

Satellite view of KTPH